createdAt,value
2022-08-17T00:00:49.296Z,50.87
2022-08-17T00:01:51.701Z,50.77
2022-08-17T00:02:41.103Z,50.77
2022-08-17T00:03:34.551Z,50.87
2022-08-17T00:04:34.523Z,51.07
2022-08-17T00:05:34.507Z,50.97
2022-08-17T00:06:34.504Z,50.87
2022-08-17T00:07:34.501Z,50.87
2022-08-17T00:08:34.495Z,51.17
2022-08-17T00:09:34.481Z,51.07
2022-08-17T00:10:34.463Z,51.07
2022-08-17T00:11:34.449Z,51.29
2022-08-17T00:12:42.681Z,51.10
2022-08-17T00:13:34.437Z,51.10
2022-08-17T00:14:34.454Z,51.29
2022-08-17T00:15:34.408Z,51.29
2022-08-17T00:16:55.812Z,51.29
2022-08-17T00:17:34.396Z,51.29
2022-08-17T00:19:02.456Z,51.10
2022-08-17T00:19:34.372Z,51.10
2022-08-17T00:20:35.020Z,51.29
2022-08-17T00:21:56.417Z,51.20
2022-08-17T00:22:36.811Z,51.59
2022-08-17T00:23:34.315Z,51.40
2022-08-17T00:24:34.311Z,51.59
2022-08-17T00:25:34.300Z,51.50
2022-08-17T00:26:44.303Z,51.70
2022-08-17T00:27:34.285Z,51.79
2022-08-17T00:28:34.265Z,52.00
2022-08-17T00:29:34.259Z,51.89
2022-08-17T00:30:51.190Z,51.79
2022-08-17T00:31:34.256Z,52.09
2022-08-17T00:33:14.104Z,52.02
2022-08-17T00:33:34.222Z,52.09
2022-08-17T00:34:34.202Z,52.02
2022-08-17T00:35:34.202Z,52.02
2022-08-17T00:36:34.460Z,52.12
2022-08-17T00:37:34.184Z,52.22
2022-08-17T00:38:34.347Z,52.42
2022-08-17T00:39:34.252Z,52.22
2022-08-17T00:40:40.671Z,52.32
2022-08-17T00:41:34.272Z,52.52
2022-08-17T00:42:34.150Z,52.32
2022-08-17T00:43:34.096Z,52.42
2022-08-17T00:44:34.090Z,52.62
2022-08-17T00:45:34.085Z,52.42
2022-08-17T00:46:34.109Z,52.42
2022-08-17T00:47:34.080Z,52.82
2022-08-17T00:48:34.070Z,52.42
2022-08-17T00:49:34.032Z,52.62
2022-08-17T00:50:34.031Z,52.52
2022-08-17T00:51:34.021Z,52.82
2022-08-17T00:52:34.000Z,53.02
2022-08-17T00:53:34.011Z,52.72
2022-08-17T00:54:33.984Z,52.62
2022-08-17T00:55:33.971Z,52.62
2022-08-17T00:56:33.970Z,52.52
2022-08-17T00:57:33.956Z,52.52
2022-08-17T00:58:36.076Z,52.62
2022-08-17T00:59:33.925Z,52.92
2022-08-17T01:00:33.940Z,52.62
2022-08-17T01:01:33.973Z,52.92
2022-08-17T01:02:34.927Z,52.92
2022-08-17T01:03:33.906Z,52.72
2022-08-17T01:04:33.900Z,53.14
2022-08-17T01:05:33.878Z,53.04
2022-08-17T01:06:33.860Z,52.94
2022-08-17T01:07:33.847Z,52.94
2022-08-17T01:08:33.833Z,52.94
2022-08-17T01:09:33.844Z,53.34
2022-08-17T05:00:59.811Z,55.55
2022-08-17T05:02:00.777Z,55.74
2022-08-17T05:03:00.741Z,55.65
2022-08-17T05:04:00.745Z,55.55
2022-08-17T05:05:00.737Z,55.65
2022-08-17T05:06:00.775Z,55.74
2022-08-17T05:07:00.698Z,55.65
2022-08-17T05:08:00.688Z,55.74
2022-08-17T05:09:00.680Z,55.74
2022-08-17T05:10:00.676Z,55.74
2022-08-17T05:11:01.456Z,55.74
2022-08-17T05:12:00.670Z,55.65
2022-08-17T05:13:00.652Z,55.94
2022-08-17T05:14:00.635Z,55.85
2022-08-17T05:15:00.620Z,55.74
2022-08-17T05:16:00.609Z,55.85
2022-08-17T05:19:15.902Z,55.65
2022-08-17T05:20:16.874Z,55.85
2022-08-17T05:21:16.865Z,56.05
2022-08-17T05:22:16.843Z,56.05
2022-08-17T05:23:16.861Z,56.15
2022-08-17T05:24:43.141Z,56.05
2022-08-17T05:25:16.821Z,56.05
2022-08-17T05:26:25.604Z,56.12
2022-08-17T05:27:16.818Z,56.22
2022-08-17T05:28:16.814Z,56.02
2022-08-17T05:29:16.798Z,56.12
2022-08-17T05:30:16.773Z,55.82
2022-08-17T05:31:16.757Z,55.92
2022-08-17T05:32:37.920Z,55.92
2022-08-17T05:33:16.759Z,56.12
2022-08-17T05:34:16.724Z,56.32
2022-08-17T05:35:16.732Z,56.02
2022-08-17T05:36:41.623Z,56.22
2022-08-17T05:37:16.702Z,56.72
2022-08-17T05:38:16.681Z,56.42
2022-08-17T05:39:17.425Z,56.62
2022-08-17T05:40:16.664Z,56.52
2022-08-17T05:41:16.687Z,56.29
2022-08-17T05:42:16.636Z,56.20
2022-08-17T05:43:16.649Z,55.99
2022-08-17T05:44:16.658Z,56.09
2022-08-17T05:45:16.623Z,56.09
2022-08-17T05:46:16.600Z,55.99
2022-08-17T05:47:16.598Z,55.69
2022-08-17T05:48:16.569Z,55.69
2022-08-17T05:49:16.585Z,55.59
2022-08-17T05:50:18.175Z,55.79
2022-08-17T05:51:16.558Z,55.59
2022-08-17T05:52:19.883Z,55.59
2022-08-17T05:53:16.522Z,55.69
2022-08-17T05:54:16.520Z,55.66
2022-08-17T05:55:16.531Z,55.36
2022-08-17T05:56:29.493Z,55.36
2022-08-17T05:57:16.495Z,55.47
2022-08-17T05:58:16.469Z,55.27
2022-08-17T05:59:16.458Z,55.17
2022-08-17T06:00:16.652Z,54.97
2022-08-17T06:01:16.491Z,54.97
2022-08-17T06:02:16.423Z,54.86
2022-08-17T06:03:16.418Z,54.86
2022-08-17T06:04:16.414Z,54.77
2022-08-17T06:05:16.392Z,54.67
2022-08-17T06:06:16.402Z,54.84
2022-08-17T06:07:16.373Z,54.64
2022-08-17T06:08:16.392Z,54.54
2022-08-17T06:09:19.813Z,54.64
2022-08-17T06:10:16.345Z,54.54
2022-08-17T06:11:16.340Z,54.64
2022-08-17T06:12:18.976Z,54.64
2022-08-17T06:13:16.312Z,54.64
2022-08-17T06:14:16.310Z,54.64
2022-08-17T06:15:16.300Z,54.64
2022-08-17T06:16:33.392Z,54.64
2022-08-17T06:17:16.274Z,54.64
2022-08-17T06:18:19.143Z,54.44
2022-08-17T06:19:16.250Z,54.44
2022-08-17T06:20:16.237Z,54.24
2022-08-17T06:21:16.237Z,54.34
2022-08-17T06:22:16.246Z,54.22
2022-08-17T06:23:16.203Z,54.11
2022-08-17T06:24:16.232Z,54.11
2022-08-17T06:25:16.194Z,54.11
2022-08-17T06:26:16.228Z,54.02
2022-08-17T06:27:16.168Z,53.92
2022-08-17T06:28:16.180Z,54.11
2022-08-17T06:29:18.629Z,54.02
2022-08-17T06:30:16.135Z,54.02
2022-08-17T06:31:16.125Z,54.02
2022-08-17T06:32:16.114Z,54.11
2022-08-17T06:33:16.115Z,54.02
2022-08-17T06:34:16.123Z,54.02
2022-08-17T06:35:16.079Z,54.22
2022-08-17T06:36:16.272Z,54.02
2022-08-17T06:37:16.077Z,54.22
2022-08-17T06:38:36.929Z,54.22
2022-08-17T06:39:16.058Z,54.02
2022-08-17T06:40:16.142Z,54.22
2022-08-17T06:41:16.021Z,54.29
2022-08-17T06:43:04.105Z,54.19
2022-08-17T06:43:16.006Z,54.09
2022-08-17T06:44:43.402Z,54.09
2022-08-17T06:45:16.007Z,53.89
2022-08-17T06:46:15.960Z,53.79
2022-08-17T06:47:15.962Z,53.79
2022-08-17T06:48:15.981Z,53.89
2022-08-17T06:49:15.950Z,53.79
2022-08-17T06:50:15.921Z,53.79
2022-08-17T06:51:15.901Z,53.79
2022-08-17T06:52:20.416Z,53.69
2022-08-17T06:53:15.905Z,53.29
2022-08-17T06:54:15.880Z,53.27
2022-08-17T06:55:18.095Z,53.27
2022-08-17T06:56:15.858Z,53.06
2022-08-17T06:57:15.840Z,53.66
2022-08-17T06:58:16.919Z,53.27
2022-08-17T06:59:15.830Z,53.66
2022-08-17T07:00:15.845Z,53.36
2022-08-17T07:01:15.850Z,52.97
2022-08-17T07:02:15.805Z,53.17
2022-08-17T07:03:15.776Z,53.06
2022-08-17T07:04:15.776Z,52.97
2022-08-17T07:05:15.759Z,52.97
2022-08-17T07:06:15.778Z,52.87
2022-08-17T07:07:15.755Z,52.87
2022-08-17T07:08:15.738Z,52.67
2022-08-17T07:09:15.721Z,52.74
2022-08-17T07:10:15.704Z,52.84
2022-08-17T07:11:15.707Z,52.64
2022-08-17T07:12:15.712Z,52.55
2022-08-17T07:13:15.684Z,52.84
2022-08-17T07:14:17.527Z,52.44
2022-08-17T07:15:15.658Z,52.34
2022-08-17T07:16:15.670Z,52.55
2022-08-17T07:17:15.636Z,52.44
2022-08-17T07:18:15.637Z,52.55
2022-08-17T07:19:15.617Z,52.64
2022-08-17T07:20:15.599Z,52.64
2022-08-17T07:21:18.538Z,52.42
2022-08-17T07:22:15.586Z,52.42
2022-08-17T07:23:15.568Z,52.42
2022-08-17T07:24:28.104Z,52.22
2022-08-17T07:25:16.035Z,52.12
2022-08-17T07:26:15.549Z,52.22
2022-08-17T07:27:15.542Z,52.32
2022-08-17T07:28:15.517Z,52.12
2022-08-17T07:29:15.532Z,52.12
2022-08-17T07:30:15.501Z,52.12
2022-08-17T07:31:15.514Z,52.02
2022-08-17T07:32:15.474Z,51.92
2022-08-17T07:33:15.471Z,51.82
2022-08-17T07:34:15.455Z,51.82
2022-08-17T07:35:15.708Z,51.92
2022-08-17T07:36:15.440Z,52.00
2022-08-17T07:37:15.442Z,52.00
2022-08-17T07:38:24.857Z,51.89
2022-08-17T07:39:15.438Z,51.79
2022-08-17T07:40:16.810Z,51.89
2022-08-17T07:41:15.379Z,51.70
2022-08-17T07:42:15.368Z,51.50
2022-08-17T07:43:15.627Z,51.50
2022-08-17T07:44:15.360Z,51.29
2022-08-17T07:45:15.387Z,51.20
2022-08-17T07:46:15.332Z,51.40
2022-08-17T07:47:15.315Z,51.40
2022-08-17T07:48:15.776Z,51.50
2022-08-17T07:49:15.293Z,51.50
2022-08-17T07:50:15.291Z,51.59
2022-08-17T07:51:15.309Z,51.47
2022-08-17T07:52:48.453Z,51.47
2022-08-17T07:53:15.259Z,51.57
2022-08-17T07:54:15.379Z,51.37
2022-08-17T07:55:15.236Z,51.27
2022-08-17T07:56:15.237Z,51.17
2022-08-17T07:57:15.215Z,51.17
2022-08-17T07:58:15.213Z,51.27
2022-08-17T07:59:15.196Z,51.17
2022-08-17T08:00:16.360Z,50.87
2022-08-17T08:01:15.256Z,50.95
2022-08-17T08:02:15.199Z,51.07
2022-08-17T08:03:15.149Z,50.85
2022-08-17T08:04:19.316Z,50.55
2022-08-17T08:05:15.143Z,50.35
2022-08-17T08:06:15.125Z,50.45
2022-08-17T08:07:15.116Z,50.45
2022-08-17T08:08:15.099Z,50.45
2022-08-17T08:09:15.076Z,50.45
2022-08-17T08:10:15.075Z,50.65
2022-08-17T08:11:15.093Z,50.45
2022-08-17T08:12:15.888Z,50.55
2022-08-17T08:13:15.087Z,50.45
2022-08-17T08:14:15.061Z,50.35
2022-08-17T08:15:15.045Z,50.55
2022-08-17T08:16:15.016Z,50.45
2022-08-17T08:17:14.994Z,50.55
2022-08-17T08:18:14.988Z,50.55
2022-08-17T08:19:19.273Z,50.55
2022-08-17T08:20:50.981Z,50.65
2022-08-17T08:21:14.962Z,50.55
2022-08-17T08:22:14.949Z,50.65
2022-08-17T08:23:14.933Z,50.65
2022-08-17T08:24:14.938Z,50.75
2022-08-17T08:25:14.944Z,50.65
2022-08-17T08:26:18.460Z,50.65
2022-08-17T08:27:14.914Z,50.75
2022-08-17T08:28:14.890Z,50.75
2022-08-17T08:29:14.873Z,50.65
2022-08-17T08:30:14.887Z,50.75
2022-08-17T08:31:14.874Z,50.85
2022-08-17T08:32:14.874Z,50.75
2022-08-17T08:33:14.824Z,50.85
2022-08-17T08:35:00.735Z,50.95
2022-08-17T08:35:14.810Z,50.75
2022-08-17T08:36:56.979Z,51.05
2022-08-17T08:37:30.298Z,51.15
2022-08-17T08:38:14.794Z,51.35
2022-08-17T08:39:14.763Z,51.84
2022-08-17T08:40:14.821Z,51.35
2022-08-17T08:41:14.751Z,51.92
2022-08-17T08:42:14.739Z,51.52
2022-08-17T08:43:14.747Z,52.02
2022-08-17T08:44:14.722Z,53.61
2022-08-17T08:45:14.705Z,52.81
2022-08-17T08:46:14.705Z,53.51
2022-08-17T08:47:14.691Z,53.51
2022-08-17T08:48:23.085Z,51.72
2022-08-17T08:49:14.670Z,51.72
2022-08-17T08:50:37.645Z,51.82
2022-08-17T08:51:14.667Z,52.42
2022-08-17T08:52:14.629Z,52.12
2022-08-17T08:53:14.631Z,53.11
2022-08-17T08:54:14.614Z,53.21
2022-08-17T08:55:14.622Z,52.72
2022-08-17T08:56:14.591Z,57.19
2022-08-17T08:57:33.965Z,53.91
2022-08-17T08:58:31.564Z,58.69
2022-08-17T08:59:14.590Z,55.40
2022-08-17T09:00:14.553Z,55.30
2022-08-17T09:01:16.623Z,58.18
2022-08-17T09:02:14.526Z,57.59
2022-08-17T09:03:14.525Z,58.48
2022-08-17T09:04:25.224Z,57.89
2022-08-17T09:05:15.529Z,60.08
2022-08-17T09:06:32.228Z,56.79
2022-08-17T09:07:14.478Z,56.30
2022-08-17T09:08:14.463Z,55.80
2022-08-17T09:09:14.450Z,55.93
2022-08-17T09:10:14.460Z,57.12
2022-08-17T09:11:14.441Z,59.51
2022-08-17T09:12:14.420Z,58.01
2022-08-17T09:13:14.405Z,56.52
2022-08-17T09:14:21.620Z,57.62
2022-08-17T09:15:14.404Z,56.52
2022-08-17T09:16:14.399Z,56.72
2022-08-17T09:17:14.367Z,56.85
2022-08-17T09:19:00.954Z,56.65
2022-08-17T09:19:14.376Z,57.84
2022-08-17T09:20:14.488Z,57.75
2022-08-17T09:21:14.339Z,59.34
2022-08-17T09:22:14.320Z,58.44
2022-08-17T09:23:14.301Z,59.04
2022-08-17T09:24:14.297Z,59.83
2022-08-17T09:25:14.299Z,59.14
2022-08-17T09:26:14.282Z,58.24
2022-08-17T09:27:14.276Z,58.64
2022-08-17T09:28:14.250Z,57.64
2022-08-17T09:29:14.238Z,58.24
2022-08-17T09:30:14.231Z,59.64
2022-08-17T09:31:14.214Z,60.21
2022-08-17T09:32:14.233Z,59.11
2022-08-17T09:33:14.199Z,60.00
2022-08-17T09:34:14.188Z,61.99
2022-08-17T09:35:14.179Z,59.81
2022-08-17T09:36:14.177Z,58.71
2022-08-17T09:37:14.161Z,59.81
2022-08-17T09:38:14.176Z,59.31
2022-08-17T09:39:14.133Z,60.40
2022-08-17T09:40:14.191Z,59.51
2022-08-17T09:41:14.114Z,59.51
2022-08-17T09:42:14.103Z,62.40
2022-08-17T09:43:14.152Z,62.89
2022-08-17T09:44:23.216Z,61.50
2022-08-17T09:45:14.078Z,60.30
2022-08-17T09:46:14.064Z,59.58
2022-08-17T09:47:14.053Z,59.28
2022-08-17T09:48:14.048Z,58.78
2022-08-17T09:49:14.049Z,58.18
2022-08-17T09:50:14.029Z,59.08
2022-08-17T09:51:14.012Z,58.69
2022-08-17T09:52:14.000Z,58.39
2022-08-17T09:53:13.995Z,58.36
2022-08-17T09:54:37.651Z,58.06
2022-08-17T09:55:13.972Z,57.86
2022-08-17T09:56:13.964Z,57.36
2022-08-17T09:57:29.026Z,56.67
2022-08-17T09:58:13.941Z,56.37
2022-08-17T09:59:13.945Z,56.87
2022-08-17T10:00:13.926Z,56.37
2022-08-17T10:01:13.960Z,56.67
2022-08-17T10:02:13.899Z,54.18
2022-08-17T10:03:13.882Z,54.48
2022-08-17T10:04:13.874Z,53.88
2022-08-17T10:05:13.883Z,53.78
2022-08-17T10:06:13.867Z,52.99
2022-08-17T10:07:13.838Z,53.39
2022-08-17T10:08:13.828Z,53.69
2022-08-17T10:09:13.818Z,53.16
2022-08-17T10:10:14.500Z,53.16
2022-08-17T10:11:13.803Z,53.06
2022-08-17T10:12:17.067Z,52.96
2022-08-17T10:13:13.780Z,52.47
2022-08-17T10:14:37.712Z,52.76
2022-08-17T10:15:13.766Z,52.76
2022-08-17T10:16:13.770Z,52.76
2022-08-17T10:17:13.733Z,52.74
2022-08-17T10:18:13.736Z,52.44
2022-08-17T10:19:13.713Z,52.74
2022-08-17T10:20:13.702Z,52.84
2022-08-17T10:21:13.704Z,52.64
2022-08-17T10:22:32.329Z,52.54
2022-08-17T10:23:13.695Z,52.64
2022-08-17T10:24:13.663Z,51.75
2022-08-17T10:25:22.164Z,51.75
2022-08-17T10:26:13.673Z,51.54
2022-08-17T10:27:13.647Z,51.75
2022-08-17T10:28:19.908Z,51.65
2022-08-17T10:29:13.630Z,51.65
2022-08-17T10:30:13.602Z,51.82
2022-08-17T10:32:13.579Z,51.12
2022-08-17T10:33:13.598Z,50.83
2022-08-17T10:34:13.562Z,50.73
2022-08-17T10:35:13.550Z,50.63
2022-08-17T10:36:13.538Z,50.73
2022-08-17T10:37:13.529Z,50.81
2022-08-17T10:38:13.513Z,50.70
2022-08-17T10:39:13.527Z,50.51
2022-08-17T10:40:13.555Z,50.40
2022-08-17T10:41:13.489Z,50.11
2022-08-17T10:42:13.465Z,50.01
2022-08-17T10:43:13.466Z,50.11
2022-08-17T10:44:39.647Z,50.38
2022-08-17T10:45:13.451Z,50.18
2022-08-17T10:46:30.394Z,50.38
2022-08-17T10:47:13.453Z,49.79
2022-08-17T10:48:13.854Z,50.58
2022-08-17T10:49:13.394Z,50.58
2022-08-17T10:50:13.475Z,50.18
2022-08-17T10:51:13.379Z,49.88
2022-08-17T10:52:13.368Z,50.09
2022-08-17T10:53:17.907Z,50.28
2022-08-17T10:54:13.370Z,50.28
2022-08-17T10:55:13.336Z,50.38
2022-08-17T10:56:13.360Z,50.58
2022-08-17T10:57:13.318Z,50.58
2022-08-17T10:58:13.311Z,50.38
2022-08-17T10:59:13.312Z,50.58
2022-08-17T11:00:13.283Z,50.58
2022-08-17T11:01:13.435Z,50.68
2022-08-17T11:02:13.310Z,50.78
2022-08-17T11:03:13.248Z,50.78
2022-08-17T11:04:13.234Z,50.78
2022-08-17T11:05:13.289Z,50.68
2022-08-17T11:06:13.210Z,50.68
2022-08-17T11:07:13.219Z,50.68
2022-08-17T11:08:13.204Z,50.58
2022-08-17T11:09:13.214Z,50.68
2022-08-17T11:10:13.178Z,50.78
2022-08-17T11:11:13.204Z,50.70
2022-08-17T11:12:13.205Z,50.78
2022-08-17T11:13:13.145Z,50.60
2022-08-17T11:14:13.166Z,50.70
2022-08-17T11:15:13.115Z,51.20
2022-08-17T11:16:13.220Z,51.00
2022-08-17T11:17:13.102Z,50.60
2022-08-17T11:18:19.096Z,51.50
2022-08-17T11:19:13.266Z,51.30
2022-08-17T11:20:13.081Z,51.30
2022-08-17T11:21:13.067Z,51.20
2022-08-17T11:22:15.027Z,51.30
2022-08-17T11:23:13.193Z,52.09
2022-08-17T11:24:13.368Z,52.79
2022-08-17T11:25:13.503Z,52.59
2022-08-17T11:26:13.105Z,55.27
2022-08-17T11:27:12.999Z,52.29
2022-08-17T11:28:13.000Z,51.60
2022-08-17T11:29:12.981Z,52.39
2022-08-17T11:30:12.963Z,51.70
2022-08-17T11:31:12.979Z,51.70
2022-08-17T11:32:12.943Z,51.20
2022-08-17T11:33:12.930Z,51.30
2022-08-17T11:34:12.949Z,51.10
2022-08-17T11:35:12.960Z,51.40
2022-08-17T11:36:12.913Z,51.40
2022-08-17T11:37:12.933Z,51.20
2022-08-17T11:38:16.407Z,51.10
2022-08-17T11:39:12.878Z,51.10
2022-08-17T11:40:12.966Z,51.00
2022-08-17T11:41:12.902Z,50.58
2022-08-17T11:42:12.837Z,50.48
2022-08-17T11:43:12.869Z,50.58
2022-08-17T11:44:12.840Z,50.18
2022-08-17T11:45:16.237Z,50.09
2022-08-17T11:46:12.820Z,50.09
2022-08-17T11:47:12.803Z,49.69
2022-08-17T11:48:29.160Z,49.19
2022-08-17T11:49:12.803Z,49.17
2022-08-17T11:50:12.796Z,48.77
2022-08-17T11:51:12.761Z,48.87
2022-08-17T11:52:12.731Z,49.07
2022-08-17T11:53:12.721Z,48.97
2022-08-17T11:54:32.178Z,48.97
2022-08-17T11:55:34.378Z,48.67
2022-08-17T11:56:12.845Z,48.15
2022-08-17T11:57:12.700Z,48.25
2022-08-17T11:58:12.708Z,48.45
2022-08-17T11:59:12.723Z,47.75
2022-08-17T12:00:12.656Z,47.53
2022-08-17T12:01:13.789Z,47.74
2022-08-17T12:02:12.681Z,47.24
2022-08-17T12:03:12.677Z,47.14
2022-08-17T12:04:12.658Z,46.82
2022-08-17T12:05:12.605Z,46.72
2022-08-17T12:06:12.594Z,46.92
2022-08-17T12:07:12.613Z,46.62
2022-08-17T12:08:12.592Z,46.30
2022-08-17T12:09:12.597Z,46.40
2022-08-17T12:10:12.579Z,46.40
2022-08-17T12:11:12.546Z,46.01
2022-08-17T12:12:14.222Z,45.39
2022-08-17T12:13:12.551Z,45.29
2022-08-17T12:14:17.754Z,45.29
2022-08-17T12:15:12.616Z,44.97
2022-08-17T12:16:12.498Z,44.87
2022-08-17T12:17:12.511Z,44.28
2022-08-17T12:18:12.464Z,44.36
2022-08-17T12:19:12.490Z,43.96
2022-08-17T12:20:12.471Z,43.77
2022-08-17T12:21:12.443Z,43.87
2022-08-17T12:22:12.424Z,43.74
2022-08-17T12:23:12.429Z,43.45
2022-08-17T12:24:12.396Z,43.25
2022-08-17T12:25:12.442Z,43.45
2022-08-17T12:26:12.406Z,42.83
2022-08-17T12:27:13.227Z,42.44
2022-08-17T12:28:15.689Z,42.83
2022-08-17T12:29:18.015Z,41.55
2022-08-17T12:30:12.377Z,41.36
2022-08-17T12:31:12.392Z,41.33
2022-08-17T12:32:12.341Z,41.33
2022-08-17T12:33:12.356Z,41.63
2022-08-17T12:34:12.320Z,40.84
2022-08-17T12:35:12.301Z,40.62
2022-08-17T12:36:12.372Z,40.43
2022-08-17T12:37:12.275Z,40.53
2022-08-17T12:38:32.480Z,39.94
2022-08-17T12:39:13.921Z,39.73
2022-08-17T12:40:12.263Z,39.54
2022-08-17T12:41:12.388Z,39.64
2022-08-17T12:42:12.234Z,39.54
2022-08-17T12:43:12.210Z,39.32
2022-08-17T12:44:12.339Z,39.12
2022-08-17T12:45:12.197Z,39.25
2022-08-17T12:46:15.089Z,39.73
2022-08-17T12:47:12.167Z,39.44
2022-08-17T12:48:12.153Z,39.34
2022-08-17T12:49:12.167Z,39.84
2022-08-17T12:50:29.790Z,39.44
2022-08-17T12:51:12.130Z,39.64
2022-08-17T12:52:12.113Z,39.15
2022-08-17T12:53:12.116Z,39.44
2022-08-17T12:54:12.118Z,39.52
2022-08-17T12:55:12.110Z,39.23
2022-08-17T12:56:12.102Z,39.23
2022-08-17T12:57:12.067Z,38.43
2022-08-17T12:58:14.292Z,38.93
2022-08-17T12:59:12.046Z,38.73
2022-08-17T13:00:12.021Z,38.73
2022-08-17T13:01:12.047Z,38.64
2022-08-17T13:02:12.086Z,38.73
2022-08-17T13:03:12.578Z,38.24
2022-08-17T13:04:11.985Z,38.43
2022-08-17T13:05:12.643Z,38.43
2022-08-17T13:06:11.975Z,38.51
2022-08-17T13:07:11.961Z,38.32
2022-08-17T13:08:11.984Z,38.12
2022-08-17T13:09:11.962Z,38.02
2022-08-17T13:10:11.919Z,38.12
2022-08-17T13:11:11.931Z,38.22
2022-08-17T13:12:11.900Z,38.32
2022-08-17T13:13:11.899Z,38.32
2022-08-17T13:14:11.950Z,38.62
2022-08-17T13:15:11.867Z,38.42
2022-08-17T13:16:11.898Z,38.02
2022-08-17T13:17:13.595Z,38.22
2022-08-17T13:18:11.852Z,38.02
2022-08-17T13:19:11.853Z,38.02
2022-08-17T13:20:11.848Z,38.22
2022-08-17T13:21:11.824Z,38.02
2022-08-17T13:22:11.809Z,38.01
2022-08-17T13:23:12.517Z,38.30
2022-08-17T13:24:11.862Z,38.20
2022-08-17T13:25:11.822Z,37.20
2022-08-17T13:26:11.762Z,37.49
2022-08-17T13:27:11.756Z,37.79
2022-08-17T13:28:11.738Z,37.89
2022-08-17T13:29:11.790Z,37.40
2022-08-17T13:30:11.752Z,37.28
2022-08-17T13:31:11.733Z,36.99
2022-08-17T13:32:13.492Z,36.30
2022-08-17T13:33:11.785Z,36.69
2022-08-17T13:34:11.758Z,36.49
2022-08-17T13:35:15.511Z,36.67
2022-08-17T13:36:11.673Z,36.77
2022-08-17T13:37:11.661Z,36.28
2022-08-17T13:38:11.986Z,36.16
2022-08-17T13:39:11.625Z,35.87
2022-08-17T13:40:11.664Z,36.15
2022-08-17T13:41:11.620Z,36.15
2022-08-17T13:42:13.677Z,35.55
2022-08-17T13:43:11.591Z,35.16
2022-08-17T13:44:11.630Z,35.55
2022-08-17T13:45:34.258Z,35.75
2022-08-17T13:46:11.551Z,34.97
2022-08-17T13:47:11.546Z,35.36
2022-08-17T13:48:13.582Z,35.16
2022-08-17T13:49:11.525Z,35.46
2022-08-17T13:50:11.533Z,35.36
2022-08-17T13:51:11.813Z,35.75
2022-08-17T13:52:11.513Z,35.26
2022-08-17T13:53:11.511Z,35.38
2022-08-17T13:54:11.463Z,35.67
2022-08-17T13:55:11.483Z,35.67
2022-08-17T13:56:33.459Z,35.67
2022-08-17T13:57:11.446Z,35.28
2022-08-17T13:58:11.422Z,35.77
2022-08-17T13:59:11.420Z,35.57
2022-08-17T14:00:11.450Z,35.77
2022-08-17T14:01:12.737Z,35.38
2022-08-17T14:02:11.472Z,35.47
2022-08-17T14:03:11.373Z,35.38
2022-08-17T14:04:11.368Z,35.36
2022-08-17T14:05:11.429Z,35.16
2022-08-17T14:06:11.421Z,35.46
2022-08-17T14:07:11.411Z,35.16
2022-08-17T14:08:11.312Z,35.06
2022-08-17T14:09:11.314Z,35.26
2022-08-17T14:10:11.306Z,35.05
2022-08-17T14:11:11.317Z,35.05
2022-08-17T14:12:11.299Z,35.05
2022-08-17T14:13:11.281Z,34.95
2022-08-17T14:14:11.285Z,34.75
2022-08-17T14:15:11.254Z,35.14
2022-08-17T14:16:11.365Z,35.05
2022-08-17T14:17:11.312Z,35.14
2022-08-17T14:18:11.242Z,35.05
2022-08-17T14:19:11.239Z,34.75
2022-08-17T14:20:11.205Z,34.85
2022-08-17T14:21:11.193Z,34.26
2022-08-17T14:22:11.188Z,34.56
2022-08-17T14:23:11.181Z,34.64
2022-08-17T14:24:11.215Z,34.54
2022-08-17T14:25:11.144Z,34.34
2022-08-17T14:26:11.131Z,34.25
2022-08-17T14:27:11.135Z,33.95
2022-08-17T14:28:11.119Z,34.25
2022-08-17T14:29:14.878Z,33.85
2022-08-17T14:30:11.115Z,33.65
2022-08-17T14:31:11.086Z,33.85
2022-08-17T14:32:11.098Z,34.03
2022-08-17T14:33:11.068Z,34.13
2022-08-17T14:34:11.058Z,33.74
2022-08-17T14:35:11.046Z,33.94
2022-08-17T14:36:11.073Z,33.74
2022-08-17T14:37:11.021Z,33.54
2022-08-17T14:38:11.042Z,33.25
2022-08-17T14:39:11.032Z,33.15
2022-08-17T14:40:11.096Z,33.25
2022-08-17T14:41:11.003Z,33.53
2022-08-17T14:42:10.992Z,33.33
2022-08-17T14:43:11.011Z,32.74
2022-08-17T14:44:10.960Z,32.35
2022-08-17T14:45:30.155Z,32.45
2022-08-17T14:46:10.952Z,32.45
2022-08-17T14:47:11.028Z,31.86
2022-08-17T14:48:10.914Z,32.25
2022-08-17T14:49:10.906Z,32.15
2022-08-17T14:50:10.908Z,32.04
2022-08-17T14:51:10.886Z,31.94
2022-08-17T14:52:10.880Z,31.55
2022-08-17T14:53:10.914Z,31.73
2022-08-17T14:54:10.851Z,31.34
2022-08-17T14:55:10.871Z,31.34
2022-08-17T14:56:10.837Z,31.52
2022-08-17T14:57:25.171Z,31.70
2022-08-17T14:58:10.814Z,31.21
2022-08-17T14:59:10.803Z,30.90
2022-08-17T15:00:10.794Z,31.10
2022-08-17T15:01:10.833Z,30.79
2022-08-17T15:02:10.772Z,30.88
2022-08-17T15:03:10.761Z,30.77
2022-08-17T15:04:10.755Z,29.31
2022-08-17T15:05:10.741Z,29.88
2022-08-17T15:06:10.743Z,28.81
2022-08-17T15:07:10.736Z,29.00
2022-08-17T15:08:10.731Z,29.47
2022-08-17T15:09:10.703Z,29.18
2022-08-17T15:10:10.707Z,29.18
2022-08-17T15:11:14.297Z,29.17
2022-08-17T15:12:10.686Z,27.51
2022-08-17T15:13:10.680Z,28.00
2022-08-17T15:14:10.658Z,27.89
2022-08-17T15:15:10.661Z,27.30
2022-08-17T15:16:10.659Z,26.61
2022-08-17T15:17:10.629Z,27.00
2022-08-17T15:18:10.668Z,26.59
2022-08-17T15:19:10.636Z,27.28
2022-08-17T15:20:14.736Z,26.78
2022-08-17T15:21:10.587Z,26.19
2022-08-17T15:22:10.576Z,26.08
2022-08-17T15:23:10.566Z,26.84
2022-08-17T15:24:10.565Z,26.15
2022-08-17T15:25:10.585Z,25.67
2022-08-17T15:26:10.543Z,25.46
2022-08-17T15:27:10.524Z,25.15
2022-08-17T15:28:10.514Z,24.57
2022-08-17T15:29:10.502Z,24.57
2022-08-17T15:30:10.498Z,24.87
2022-08-17T15:31:10.512Z,23.88
2022-08-17T15:32:10.484Z,24.46
2022-08-17T15:33:10.465Z,24.16
2022-08-17T15:34:10.460Z,24.15
2022-08-17T15:35:10.461Z,23.86
2022-08-17T15:36:10.458Z,23.75
2022-08-17T15:37:10.426Z,23.65
2022-08-17T15:38:12.288Z,23.46
2022-08-17T15:39:10.404Z,23.46
2022-08-17T15:40:10.518Z,22.86
2022-08-17T15:41:10.443Z,23.06
2022-08-17T15:42:10.377Z,22.48
2022-08-17T15:43:10.384Z,23.05
2022-08-17T15:44:10.361Z,23.24
2022-08-17T15:45:10.359Z,23.03
2022-08-17T15:46:10.361Z,22.65
2022-08-17T15:47:10.329Z,22.54
2022-08-17T15:48:10.322Z,22.34
2022-08-17T15:49:10.308Z,22.34
2022-08-17T15:50:10.325Z,22.06
2022-08-17T15:51:10.290Z,22.45
2022-08-17T15:52:10.311Z,22.56
2022-08-17T15:53:10.281Z,23.16
2022-08-17T15:54:18.931Z,22.88
2022-08-17T15:55:10.284Z,23.47
2022-08-17T15:56:10.277Z,23.28
2022-08-17T15:57:10.262Z,23.79
2022-08-17T15:58:10.222Z,24.46
2022-08-17T15:59:10.218Z,23.79
2022-08-17T16:00:10.208Z,23.72
2022-08-17T16:01:16.481Z,24.13
2022-08-17T16:03:16.133Z,24.54
2022-08-17T16:04:04.143Z,25.34
2022-08-17T16:04:26.711Z,25.15
2022-08-17T16:05:10.410Z,25.54
2022-08-17T16:06:11.041Z,25.46
2022-08-17T16:07:10.146Z,25.96
2022-08-17T16:08:10.147Z,26.35
2022-08-17T16:09:10.129Z,26.35
2022-08-17T16:10:10.107Z,26.76
2022-08-17T16:11:10.134Z,26.76
2022-08-17T16:12:10.109Z,27.25
2022-08-17T16:13:17.596Z,27.55
2022-08-17T16:14:10.086Z,27.65
2022-08-17T16:15:10.052Z,27.65
2022-08-17T16:16:10.053Z,27.95
2022-08-17T16:17:38.567Z,27.27
2022-08-17T16:18:10.035Z,27.38
2022-08-17T16:19:10.023Z,27.48
2022-08-17T16:20:10.040Z,27.78
2022-08-17T16:21:10.009Z,27.88
2022-08-17T16:22:10.001Z,28.38
2022-08-17T16:23:09.986Z,28.49
2022-08-17T16:24:13.637Z,28.68
2022-08-17T16:25:09.993Z,28.78
2022-08-17T16:26:09.942Z,28.78
2022-08-17T16:27:11.680Z,28.97
2022-08-17T16:28:09.966Z,29.07
2022-08-17T16:29:09.915Z,29.48
2022-08-17T16:30:14.966Z,29.58
2022-08-17T16:31:09.939Z,29.58
2022-08-17T16:32:09.914Z,29.28
2022-08-17T16:33:09.878Z,29.08
2022-08-17T16:34:17.353Z,29.08
2022-08-17T16:35:09.878Z,28.69
2022-08-17T16:36:09.856Z,28.69
2022-08-17T16:37:09.833Z,28.50
2022-08-17T16:38:09.868Z,28.31
2022-08-17T16:39:09.823Z,28.22
2022-08-17T16:40:09.858Z,28.31
2022-08-17T16:41:09.789Z,28.22
2022-08-17T16:42:09.784Z,28.31
2022-08-17T16:43:09.782Z,28.41
2022-08-17T16:44:09.778Z,28.71
2022-08-17T16:45:09.796Z,28.72
2022-08-17T16:46:09.745Z,29.11